Airfield :
LOGIN :

Register | Disclaimer

   EN    FR    IT 

 










Legend :    VFR   Marginal VFR   IFR   Intensive IFR   Very Intensive IFR
Visi :
Ceiling :
>= 8 km
>= 3000ft
5 to 8 km
1000 to 3000 ft
1500m to 5 km
500 to 1000 ft
800 to 1500m
200 to 500 ft
< 800m
< 200 ft
Symbols :   Thunderstorms  Fog  Heavy snow  Heavy precipitations  Wind > 20 kt
SIGMETs :     Misc.  Thunderstorms  Icing  Turbulence  Mountain Waves  Volcanic Ashes






- Airport Elevation : 187 ft


LPMR - Monte Real Air Base

CURRENT METAR :
  • 180100Z 33007KT 2500 -DZ BR SCT003 OVC006 15/14 Q1013

EXPIRED METARs :
  • 180000Z 33008KT 2000 -DZ BR SCT003 OVC006 15/14 Q1013
  • 172300Z 32007KT 2000 -DZ BR SCT004 BKN006 BKN012 14/14 Q1014

TAF TAF LPMR
Valid from the 18 at 00:00 until the 19 at 00:00 UTC


172301Z 1800/1824 32007KT 7000 -RA BKN008 BKN012
TEMPO 1800/1808 2000 -DZ BR BKN006
BECMG 1805/1807 VRB02KT
BECMG 1808/1810 9999 NSW SCT012 SCT020
TEMPO 1809/1820 5000 SHRA BKN015
BECMG 1812/1814 34012KT
PROB30
TEMPO 1813/1816 3000 TSRA BKN012 SCT018CB
BECMG 1820/1822 BKN012



MET'MAP, your aeronautical weather chart ! - Copyright ORBIFLY December 2007 - Disclaimer

ORBIFLY MET'MAP TEAM :

Programming & Development : Alexandra Zaïnal
Concept & original design : Baudouin d'Aumeries
Assistance for programming : Marc-Olivier Méhu
Technical & hardware support : Manuel Goepfert

Contact : metmap@orbifly.com




SOURCES & CREDITS :

   NOAA